TVS2QZ LKPR-LIRF
Flight info
| Callsign | TVS2QZ |
|---|---|
| Flight time | 1h 27m |
| Altitude | 39000 |
| Route | VOZ DCT PISAM DCT TAGAS/N0442F380 DCT RADLY DCT BAXON/N0445F390 DCT UNUMU DCT ETPOK/N0344F190 T369 RITEB |
| Aircraft | B38M/M-SDE3FGHIJ1J3J4J7M3P2RWXYZ/LB1D1 |
Departure
| Time | 2026-05-06 14:28 |
|---|---|
| Airport | Václav Havel Airport Prague (LKPR) |
Arrival
| Time | 2026-05-06 15:55 |
|---|---|
| Airport | Rome–Fiumicino Leonardo da Vinci International Airport (LIRF) |
| Time | Latitude | Longitude | Altitude | Speed | Heading |
|---|---|---|---|---|---|
| 2026-05-06 13:53 | 50.10411 | 14.26635 | 1171 ft | 0 kts | 34° |
| 2026-05-06 14:18 | 50.10405 | 14.26629 | 1176 ft | 4 kts | 33° |
| 2026-05-06 14:18 | 50.10382 | 14.26612 | 1175 ft | 4 kts | 359° |
| 2026-05-06 14:18 | 50.10369 | 14.26621 | 1176 ft | 0 kts | 304° |
| 2026-05-06 14:22 | 50.10387 | 14.26581 | 1173 ft | 9 kts | 304° |
| 2026-05-06 14:22 | 50.10433 | 14.26476 | 1175 ft | 13 kts | 304° |
| 2026-05-06 14:23 | 50.10485 | 14.26359 | 1174 ft | 10 kts | 304° |
| 2026-05-06 14:23 | 50.10527 | 14.26258 | 1174 ft | 12 kts | 293° |
| 2026-05-06 14:23 | 50.10534 | 14.26122 | 1176 ft | 13 kts | 255° |
| 2026-05-06 14:23 | 50.10516 | 14.25993 | 1174 ft | 11 kts | 259° |
| 2026-05-06 14:24 | 50.10529 | 14.25917 | 1176 ft | 8 kts | 300° |
| 2026-05-06 14:24 | 50.10563 | 14.25833 | 1175 ft | 10 kts | 302° |
| 2026-05-06 14:24 | 50.10604 | 14.25730 | 1177 ft | 12 kts | 300° |
| 2026-05-06 14:24 | 50.10640 | 14.25618 | 1174 ft | 2 kts | 278° |
| 2026-05-06 14:25 | 50.10637 | 14.25580 | 1176 ft | 5 kts | 250° |
| 2026-05-06 14:25 | 50.10613 | 14.25526 | 1176 ft | 7 kts | 236° |
| 2026-05-06 14:25 | 50.10592 | 14.25443 | 1173 ft | 10 kts | 254° |
| 2026-05-06 14:25 | 50.10577 | 14.25320 | 1172 ft | 14 kts | 259° |
| 2026-05-06 14:26 | 50.10552 | 14.25157 | 1167 ft | 9 kts | 248° |
| 2026-05-06 14:26 | 50.10539 | 14.25120 | 1168 ft | 1 kts | 225° |
| 2026-05-06 14:26 | 50.10531 | 14.25117 | 1167 ft | 1 kts | 183° |
| 2026-05-06 14:26 | 50.10516 | 14.25131 | 1170 ft | 2 kts | 128° |
| 2026-05-06 14:27 | 50.10511 | 14.25141 | 1171 ft | 0 kts | 127° |
| 2026-05-06 14:27 | 50.10506 | 14.25152 | 1169 ft | 15 kts | 128° |
| 2026-05-06 14:27 | 50.10248 | 14.25680 | 1190 ft | 105 kts | 127° |
| 2026-05-06 14:27 | 50.09641 | 14.26930 | 1227 ft | 180 kts | 128° |
| 2026-05-06 14:28 | 50.08837 | 14.28583 | 2114 ft | 195 kts | 128° |
| 2026-05-06 14:28 | 50.07961 | 14.30392 | 2695 ft | 222 kts | 129° |
| 2026-05-06 14:28 | 50.07009 | 14.32354 | 2805 ft | 238 kts | 128° |
| 2026-05-06 14:28 | 50.05979 | 14.34488 | 2857 ft | 252 kts | 128° |
| 2026-05-06 14:29 | 50.04914 | 14.36695 | 2982 ft | 258 kts | 128° |
| 2026-05-06 14:29 | 50.03821 | 14.38945 | 3084 ft | 262 kts | 128° |
| 2026-05-06 14:29 | 50.02724 | 14.41206 | 3830 ft | 257 kts | 129° |
| 2026-05-06 14:29 | 50.01643 | 14.43429 | 5134 ft | 260 kts | 129° |
| 2026-05-06 14:30 | 50.00536 | 14.45703 | 6302 ft | 266 kts | 129° |
| 2026-05-06 14:30 | 49.99408 | 14.48019 | 7390 ft | 272 kts | 130° |
| 2026-05-06 14:30 | 49.98068 | 14.50019 | 8463 ft | 271 kts | 151° |
| 2026-05-06 14:30 | 49.96403 | 14.51452 | 9549 ft | 277 kts | 153° |
| 2026-05-06 14:31 | 49.94691 | 14.52930 | 10403 ft | 288 kts | 154° |
| 2026-05-06 14:31 | 49.92870 | 14.54482 | 10976 ft | 309 kts | 154° |
| 2026-05-06 14:31 | 49.90924 | 14.56127 | 11542 ft | 327 kts | 155° |
| 2026-05-06 14:31 | 49.88886 | 14.57841 | 12205 ft | 340 kts | 155° |
| 2026-05-06 14:32 | 49.86783 | 14.59604 | 13033 ft | 346 kts | 155° |
| 2026-05-06 14:32 | 49.84645 | 14.61393 | 13888 ft | 351 kts | 156° |
| 2026-05-06 14:32 | 49.82485 | 14.63200 | 14678 ft | 355 kts | 156° |
| 2026-05-06 14:32 | 49.80299 | 14.65026 | 15455 ft | 359 kts | 156° |
| 2026-05-06 14:33 | 49.78090 | 14.66868 | 16224 ft | 363 kts | 156° |
| 2026-05-06 14:33 | 49.75854 | 14.68730 | 16982 ft | 366 kts | 156° |
| 2026-05-06 14:33 | 49.73595 | 14.70610 | 17759 ft | 370 kts | 156° |
| 2026-05-06 14:33 | 49.71346 | 14.72480 | 18412 ft | 374 kts | 156° |
| 2026-05-06 14:34 | 49.69043 | 14.74392 | 19053 ft | 377 kts | 156° |
| 2026-05-06 14:34 | 49.66723 | 14.76316 | 19697 ft | 380 kts | 157° |
| 2026-05-06 14:34 | 49.64389 | 14.78250 | 20332 ft | 383 kts | 157° |
| 2026-05-06 14:34 | 49.62032 | 14.80201 | 20971 ft | 385 kts | 157° |
| 2026-05-06 14:35 | 49.59661 | 14.82162 | 21597 ft | 388 kts | 157° |
| 2026-05-06 14:35 | 49.57270 | 14.84137 | 22175 ft | 392 kts | 157° |
| 2026-05-06 14:35 | 49.54855 | 14.86128 | 22788 ft | 395 kts | 158° |
| 2026-05-06 14:35 | 49.52418 | 14.88120 | 23359 ft | 398 kts | 158° |
| 2026-05-06 14:36 | 49.49956 | 14.90119 | 23831 ft | 402 kts | 158° |
| 2026-05-06 14:36 | 49.47464 | 14.92142 | 24312 ft | 405 kts | 158° |
| 2026-05-06 14:36 | 49.44958 | 14.94173 | 24769 ft | 408 kts | 158° |
| 2026-05-06 14:36 | 49.42470 | 14.96189 | 25221 ft | 411 kts | 158° |
| 2026-05-06 14:37 | 49.39931 | 14.98242 | 25663 ft | 414 kts | 158° |
| 2026-05-06 14:37 | 49.37368 | 15.00313 | 26092 ft | 417 kts | 158° |
| 2026-05-06 14:37 | 49.34791 | 15.02393 | 26524 ft | 420 kts | 158° |
| 2026-05-06 14:37 | 49.32191 | 15.04489 | 26957 ft | 423 kts | 158° |
| 2026-05-06 14:38 | 49.29576 | 15.06595 | 27387 ft | 426 kts | 158° |
| 2026-05-06 14:38 | 49.26944 | 15.08711 | 27799 ft | 429 kts | 158° |
| 2026-05-06 14:38 | 49.24290 | 15.10843 | 28213 ft | 432 kts | 159° |
| 2026-05-06 14:38 | 49.21613 | 15.12991 | 28612 ft | 435 kts | 158° |
| 2026-05-06 14:39 | 49.18926 | 15.15143 | 29007 ft | 438 kts | 159° |
| 2026-05-06 14:39 | 49.16219 | 15.17310 | 29394 ft | 440 kts | 159° |
| 2026-05-06 14:39 | 49.13497 | 15.19486 | 29775 ft | 443 kts | 159° |
| 2026-05-06 14:39 | 49.10751 | 15.21677 | 30101 ft | 446 kts | 159° |
| 2026-05-06 14:40 | 49.07993 | 15.23876 | 30409 ft | 448 kts | 159° |
| 2026-05-06 14:40 | 49.05220 | 15.26083 | 30714 ft | 450 kts | 159° |
| 2026-05-06 14:40 | 49.02443 | 15.28291 | 31116 ft | 451 kts | 159° |
| 2026-05-06 14:40 | 48.99663 | 15.30499 | 31558 ft | 450 kts | 160° |
| 2026-05-06 14:41 | 48.96893 | 15.32697 | 31994 ft | 449 kts | 160° |
| 2026-05-06 14:41 | 48.94159 | 15.34863 | 32431 ft | 448 kts | 160° |
| 2026-05-06 14:41 | 48.91392 | 15.37053 | 32873 ft | 447 kts | 160° |
| 2026-05-06 14:41 | 48.88559 | 15.38826 | 33299 ft | 432 kts | 174° |
| 2026-05-06 14:42 | 48.85641 | 15.39783 | 33740 ft | 429 kts | 175° |
| 2026-05-06 14:42 | 48.82725 | 15.40769 | 34098 ft | 428 kts | 175° |
| 2026-05-06 14:42 | 48.79813 | 15.41724 | 34435 ft | 428 kts | 175° |
| 2026-05-06 14:42 | 48.76898 | 15.42663 | 34762 ft | 429 kts | 175° |
| 2026-05-06 14:43 | 48.73975 | 15.43596 | 35082 ft | 429 kts | 175° |
| 2026-05-06 14:43 | 48.71051 | 15.44525 | 35392 ft | 429 kts | 174° |
| 2026-05-06 14:43 | 48.68123 | 15.45454 | 35727 ft | 429 kts | 174° |
| 2026-05-06 14:43 | 48.65195 | 15.46382 | 36024 ft | 430 kts | 174° |
| 2026-05-06 14:44 | 48.62267 | 15.47308 | 36304 ft | 430 kts | 174° |
| 2026-05-06 14:44 | 48.59330 | 15.48236 | 36592 ft | 431 kts | 174° |
| 2026-05-06 14:44 | 48.56393 | 15.49164 | 36856 ft | 431 kts | 173° |
| 2026-05-06 14:45 | 48.50511 | 15.51017 | 37424 ft | 432 kts | 173° |
| 2026-05-06 14:45 | 48.47602 | 15.51932 | 37682 ft | 433 kts | 173° |
| 2026-05-06 14:45 | 48.44653 | 15.52858 | 37958 ft | 432 kts | 173° |
| 2026-05-06 14:45 | 48.41702 | 15.53784 | 38208 ft | 433 kts | 173° |
| 2026-05-06 14:46 | 48.38755 | 15.54708 | 38456 ft | 432 kts | 173° |
| 2026-05-06 14:46 | 48.35810 | 15.55630 | 38642 ft | 433 kts | 173° |
| 2026-05-06 14:46 | 48.32857 | 15.56553 | 38734 ft | 434 kts | 173° |
| 2026-05-06 14:47 | 48.26962 | 15.58394 | 38738 ft | 431 kts | 173° |
| 2026-05-06 14:47 | 48.21095 | 15.60220 | 38736 ft | 430 kts | 173° |
| 2026-05-06 14:48 | 48.15234 | 15.62042 | 38744 ft | 430 kts | 173° |
| 2026-05-06 14:48 | 48.09380 | 15.63857 | 38749 ft | 429 kts | 173° |
| 2026-05-06 14:49 | 48.04508 | 15.64879 | 38736 ft | 418 kts | 188° |
| 2026-05-06 14:49 | 47.98815 | 15.63434 | 38743 ft | 416 kts | 194° |
| 2026-05-06 14:50 | 47.93144 | 15.61698 | 38769 ft | 415 kts | 195° |
| 2026-05-06 14:50 | 47.87495 | 15.59882 | 38787 ft | 414 kts | 195° |
| 2026-05-06 14:51 | 47.81863 | 15.58057 | 38778 ft | 414 kts | 195° |
| 2026-05-06 14:51 | 47.76237 | 15.56235 | 38794 ft | 414 kts | 195° |
| 2026-05-06 14:52 | 47.70659 | 15.54433 | 38795 ft | 413 kts | 195° |
| 2026-05-06 14:52 | 47.65045 | 15.52623 | 38809 ft | 412 kts | 195° |
| 2026-05-06 14:53 | 47.59434 | 15.50817 | 38818 ft | 411 kts | 195° |
| 2026-05-06 14:53 | 47.53847 | 15.49021 | 38817 ft | 410 kts | 195° |
| 2026-05-06 14:54 | 47.48302 | 15.47247 | 38819 ft | 410 kts | 195° |
| 2026-05-06 14:54 | 47.42682 | 15.45451 | 38800 ft | 411 kts | 195° |
| 2026-05-06 14:55 | 47.37113 | 15.43675 | 38825 ft | 412 kts | 195° |
| 2026-05-06 14:55 | 47.31506 | 15.41890 | 38832 ft | 412 kts | 195° |
| 2026-05-06 14:56 | 47.25896 | 15.40108 | 38842 ft | 412 kts | 195° |
| 2026-05-06 14:56 | 47.20284 | 15.38330 | 38845 ft | 413 kts | 195° |
| 2026-05-06 14:57 | 47.14662 | 15.36553 | 38852 ft | 413 kts | 195° |
| 2026-05-06 14:57 | 47.09040 | 15.34778 | 38853 ft | 413 kts | 195° |
| 2026-05-06 14:58 | 47.03410 | 15.33006 | 38849 ft | 414 kts | 195° |
| 2026-05-06 14:58 | 46.97793 | 15.31242 | 38851 ft | 415 kts | 195° |
| 2026-05-06 14:59 | 46.92121 | 15.29464 | 38855 ft | 416 kts | 195° |
| 2026-05-06 14:59 | 46.86485 | 15.27700 | 38850 ft | 417 kts | 195° |
| 2026-05-06 15:00 | 46.80804 | 15.25928 | 38851 ft | 417 kts | 195° |
| 2026-05-06 15:00 | 46.75108 | 15.24153 | 38856 ft | 418 kts | 195° |
| 2026-05-06 15:01 | 46.69397 | 15.22378 | 38857 ft | 419 kts | 195° |
| 2026-05-06 15:01 | 46.63846 | 15.20036 | 38872 ft | 412 kts | 211° |
| 2026-05-06 15:02 | 46.58835 | 15.16056 | 38881 ft | 414 kts | 211° |
| 2026-05-06 15:02 | 46.53798 | 15.12004 | 38892 ft | 414 kts | 211° |
| 2026-05-06 15:03 | 46.48767 | 15.07913 | 38885 ft | 414 kts | 211° |
| 2026-05-06 15:03 | 46.45399 | 15.05173 | 38887 ft | 414 kts | 211° |
| 2026-05-06 15:04 | 46.40370 | 15.01089 | 38906 ft | 414 kts | 211° |
| 2026-05-06 15:04 | 46.35338 | 14.97011 | 38901 ft | 414 kts | 211° |
| 2026-05-06 15:05 | 46.30298 | 14.92936 | 38910 ft | 415 kts | 211° |
| 2026-05-06 15:05 | 46.25284 | 14.88889 | 38920 ft | 415 kts | 211° |
| 2026-05-06 15:06 | 46.20234 | 14.84823 | 38912 ft | 415 kts | 211° |
| 2026-05-06 15:06 | 46.15160 | 14.80746 | 38931 ft | 416 kts | 211° |
| 2026-05-06 15:07 | 46.10120 | 14.76705 | 38932 ft | 417 kts | 211° |
| 2026-05-06 15:07 | 46.05042 | 14.72642 | 38932 ft | 417 kts | 211° |
| 2026-05-06 15:08 | 45.99959 | 14.68583 | 38923 ft | 418 kts | 211° |
| 2026-05-06 15:08 | 45.94867 | 14.64526 | 38927 ft | 417 kts | 211° |
| 2026-05-06 15:09 | 45.89822 | 14.60515 | 38930 ft | 416 kts | 211° |
| 2026-05-06 15:09 | 45.84760 | 14.56500 | 38938 ft | 415 kts | 211° |
| 2026-05-06 15:10 | 45.79699 | 14.52493 | 38935 ft | 414 kts | 211° |
| 2026-05-06 15:10 | 45.74650 | 14.48504 | 38943 ft | 414 kts | 211° |
| 2026-05-06 15:11 | 45.69588 | 14.44513 | 38947 ft | 414 kts | 210° |
| 2026-05-06 15:11 | 45.64534 | 14.40536 | 38953 ft | 415 kts | 210° |
| 2026-05-06 15:12 | 45.59507 | 14.36589 | 38953 ft | 414 kts | 211° |
| 2026-05-06 15:12 | 45.54449 | 14.32626 | 38957 ft | 415 kts | 211° |
| 2026-05-06 15:13 | 45.49384 | 14.28666 | 38958 ft | 415 kts | 211° |
| 2026-05-06 15:13 | 45.44310 | 14.24713 | 38961 ft | 415 kts | 211° |
| 2026-05-06 15:14 | 45.39244 | 14.20762 | 38970 ft | 415 kts | 211° |
| 2026-05-06 15:14 | 45.34171 | 14.16820 | 38942 ft | 415 kts | 211° |
| 2026-05-06 15:15 | 45.29134 | 14.12914 | 38961 ft | 415 kts | 211° |
| 2026-05-06 15:15 | 45.24066 | 14.08991 | 38960 ft | 414 kts | 211° |
| 2026-05-06 15:16 | 45.18998 | 14.05077 | 38951 ft | 414 kts | 211° |
| 2026-05-06 15:16 | 45.13934 | 14.01174 | 38956 ft | 414 kts | 211° |
| 2026-05-06 15:17 | 45.08869 | 13.97279 | 38951 ft | 414 kts | 211° |
| 2026-05-06 15:17 | 45.03803 | 13.93390 | 38933 ft | 414 kts | 211° |
| 2026-05-06 15:18 | 44.98737 | 13.89509 | 38939 ft | 414 kts | 211° |
| 2026-05-06 15:18 | 44.93692 | 13.85653 | 38937 ft | 414 kts | 210° |
| 2026-05-06 15:19 | 44.88615 | 13.81779 | 38936 ft | 414 kts | 210° |
| 2026-05-06 15:19 | 44.83539 | 13.77914 | 38939 ft | 415 kts | 210° |
| 2026-05-06 15:20 | 44.78462 | 13.74056 | 38937 ft | 415 kts | 210° |
| 2026-05-06 15:20 | 44.73388 | 13.70208 | 38939 ft | 414 kts | 210° |
| 2026-05-06 15:21 | 44.68315 | 13.66369 | 38923 ft | 414 kts | 210° |
| 2026-05-06 15:21 | 44.63246 | 13.62540 | 38931 ft | 414 kts | 211° |
| 2026-05-06 15:22 | 44.58177 | 13.58717 | 38926 ft | 413 kts | 211° |
| 2026-05-06 15:22 | 44.53118 | 13.54910 | 38924 ft | 412 kts | 211° |
| 2026-05-06 15:23 | 44.48091 | 13.51133 | 38921 ft | 412 kts | 211° |
| 2026-05-06 15:23 | 44.43044 | 13.47350 | 38917 ft | 411 kts | 211° |
| 2026-05-06 15:24 | 44.38019 | 13.43528 | 38918 ft | 410 kts | 211° |
| 2026-05-06 15:24 | 44.33011 | 13.39718 | 38916 ft | 410 kts | 211° |
| 2026-05-06 15:25 | 44.28004 | 13.35918 | 38917 ft | 409 kts | 211° |
| 2026-05-06 15:25 | 44.23006 | 13.32132 | 38912 ft | 409 kts | 211° |
| 2026-05-06 15:26 | 44.18035 | 13.28373 | 38906 ft | 408 kts | 211° |
| 2026-05-06 15:26 | 44.13034 | 13.24598 | 38904 ft | 409 kts | 211° |
| 2026-05-06 15:27 | 44.08019 | 13.20821 | 38896 ft | 409 kts | 211° |
| 2026-05-06 15:27 | 44.03004 | 13.17051 | 38898 ft | 410 kts | 211° |
| 2026-05-06 15:28 | 43.98012 | 13.13306 | 38898 ft | 410 kts | 211° |
| 2026-05-06 15:28 | 43.92990 | 13.09546 | 38894 ft | 409 kts | 211° |
| 2026-05-06 15:29 | 43.88007 | 13.05821 | 38896 ft | 409 kts | 211° |
| 2026-05-06 15:29 | 43.82997 | 13.02084 | 38904 ft | 408 kts | 211° |
| 2026-05-06 15:30 | 43.78003 | 12.98365 | 38903 ft | 407 kts | 211° |
| 2026-05-06 15:30 | 43.73021 | 12.94663 | 38904 ft | 406 kts | 211° |
| 2026-05-06 15:31 | 43.68043 | 12.90971 | 38898 ft | 405 kts | 211° |
| 2026-05-06 15:31 | 43.63120 | 12.87327 | 38619 ft | 399 kts | 211° |
| 2026-05-06 15:32 | 43.58228 | 12.83711 | 37153 ft | 398 kts | 211° |
| 2026-05-06 15:32 | 43.55784 | 12.81908 | 36432 ft | 397 kts | 212° |
| 2026-05-06 15:32 | 43.53362 | 12.80123 | 35914 ft | 392 kts | 212° |
| 2026-05-06 15:32 | 43.50970 | 12.78360 | 35418 ft | 388 kts | 212° |
| 2026-05-06 15:33 | 43.48593 | 12.76610 | 35177 ft | 388 kts | 212° |
| 2026-05-06 15:33 | 43.46210 | 12.74858 | 34978 ft | 389 kts | 212° |
| 2026-05-06 15:33 | 43.41457 | 12.71200 | 34919 ft | 393 kts | 216° |
| 2026-05-06 15:34 | 43.36800 | 12.67216 | 34931 ft | 394 kts | 215° |
| 2026-05-06 15:34 | 43.32175 | 12.63314 | 34955 ft | 376 kts | 215° |
| 2026-05-06 15:35 | 43.30014 | 12.61496 | 34957 ft | 360 kts | 215° |
| 2026-05-06 15:35 | 43.27927 | 12.59742 | 34899 ft | 346 kts | 216° |
| 2026-05-06 15:35 | 43.25864 | 12.58007 | 34091 ft | 352 kts | 216° |
| 2026-05-06 15:35 | 43.23747 | 12.56231 | 32947 ft | 362 kts | 216° |
| 2026-05-06 15:36 | 43.21570 | 12.54406 | 31784 ft | 371 kts | 215° |
| 2026-05-06 15:36 | 43.19340 | 12.52539 | 30613 ft | 380 kts | 214° |
| 2026-05-06 15:36 | 43.17041 | 12.50615 | 29260 ft | 394 kts | 214° |
| 2026-05-06 15:36 | 43.14658 | 12.48624 | 27897 ft | 406 kts | 214° |
| 2026-05-06 15:37 | 43.13059 | 12.47288 | 27339 ft | 404 kts | 214° |
| 2026-05-06 15:37 | 43.10648 | 12.45275 | 26708 ft | 410 kts | 214° |
| 2026-05-06 15:37 | 43.08199 | 12.43233 | 26057 ft | 412 kts | 214° |
| 2026-05-06 15:37 | 43.04945 | 12.40522 | 25172 ft | 413 kts | 213° |
| 2026-05-06 15:38 | 43.03287 | 12.39142 | 24722 ft | 411 kts | 213° |
| 2026-05-06 15:38 | 43.00848 | 12.37114 | 24062 ft | 409 kts | 213° |
| 2026-05-06 15:38 | 42.98456 | 12.35127 | 23373 ft | 406 kts | 213° |
| 2026-05-06 15:38 | 42.96059 | 12.33137 | 22612 ft | 401 kts | 213° |
| 2026-05-06 15:39 | 42.93687 | 12.31170 | 21939 ft | 396 kts | 213° |
| 2026-05-06 15:39 | 42.91348 | 12.29232 | 21293 ft | 392 kts | 213° |
| 2026-05-06 15:39 | 42.89023 | 12.27307 | 20646 ft | 388 kts | 212° |
| 2026-05-06 15:39 | 42.86721 | 12.25404 | 20015 ft | 385 kts | 212° |
| 2026-05-06 15:40 | 42.84464 | 12.23539 | 19707 ft | 374 kts | 212° |
| 2026-05-06 15:40 | 42.82268 | 12.21724 | 19452 ft | 363 kts | 212° |
| 2026-05-06 15:40 | 42.80037 | 12.20196 | 18679 ft | 359 kts | 200° |
| 2026-05-06 15:40 | 42.77582 | 12.19525 | 17764 ft | 367 kts | 186° |
| 2026-05-06 15:41 | 42.75020 | 12.19538 | 16984 ft | 373 kts | 182° |
| 2026-05-06 15:41 | 42.72480 | 12.19548 | 16440 ft | 357 kts | 182° |
| 2026-05-06 15:41 | 42.70042 | 12.19547 | 15941 ft | 343 kts | 183° |
| 2026-05-06 15:41 | 42.67700 | 12.19543 | 15478 ft | 329 kts | 183° |
| 2026-05-06 15:42 | 42.65453 | 12.19537 | 15052 ft | 317 kts | 183° |
| 2026-05-06 15:42 | 42.63280 | 12.19529 | 14495 ft | 310 kts | 183° |
| 2026-05-06 15:42 | 42.61086 | 12.19513 | 13518 ft | 321 kts | 183° |
| 2026-05-06 15:42 | 42.58819 | 12.19493 | 12382 ft | 331 kts | 183° |
| 2026-05-06 15:43 | 42.56477 | 12.19473 | 11263 ft | 337 kts | 183° |
| 2026-05-06 15:43 | 42.54145 | 12.19457 | 10539 ft | 331 kts | 183° |
| 2026-05-06 15:43 | 42.51886 | 12.19448 | 9989 ft | 319 kts | 183° |
| 2026-05-06 15:43 | 42.49697 | 12.19437 | 9429 ft | 309 kts | 183° |
| 2026-05-06 15:44 | 42.47620 | 12.19427 | 9036 ft | 295 kts | 183° |
| 2026-05-06 15:44 | 42.45599 | 12.19418 | 8698 ft | 285 kts | 184° |
| 2026-05-06 15:44 | 42.43631 | 12.19406 | 8370 ft | 281 kts | 184° |
| 2026-05-06 15:44 | 42.41686 | 12.19396 | 8051 ft | 277 kts | 184° |
| 2026-05-06 15:45 | 42.39763 | 12.19385 | 7746 ft | 275 kts | 184° |
| 2026-05-06 15:45 | 42.37856 | 12.19372 | 7420 ft | 273 kts | 183° |
| 2026-05-06 15:45 | 42.35966 | 12.19358 | 7105 ft | 270 kts | 183° |
| 2026-05-06 15:45 | 42.34094 | 12.19345 | 6804 ft | 268 kts | 183° |
| 2026-05-06 15:46 | 42.32235 | 12.19334 | 6509 ft | 265 kts | 183° |
| 2026-05-06 15:46 | 42.30457 | 12.19324 | 6209 ft | 253 kts | 183° |
| 2026-05-06 15:46 | 42.28715 | 12.19315 | 5928 ft | 248 kts | 182° |
| 2026-05-06 15:46 | 42.26989 | 12.19303 | 5627 ft | 248 kts | 182° |
| 2026-05-06 15:47 | 42.25268 | 12.19291 | 5341 ft | 246 kts | 182° |
| 2026-05-06 15:47 | 42.23566 | 12.19281 | 5126 ft | 241 kts | 182° |
| 2026-05-06 15:47 | 42.21911 | 12.19270 | 4991 ft | 235 kts | 182° |
| 2026-05-06 15:47 | 42.20289 | 12.19258 | 4870 ft | 232 kts | 182° |
| 2026-05-06 15:48 | 42.18680 | 12.19247 | 4708 ft | 231 kts | 181° |
| 2026-05-06 15:48 | 42.17071 | 12.19238 | 4607 ft | 231 kts | 182° |
| 2026-05-06 15:48 | 42.15465 | 12.19225 | 4499 ft | 231 kts | 182° |
| 2026-05-06 15:48 | 42.13855 | 12.19201 | 4334 ft | 228 kts | 182° |
| 2026-05-06 15:49 | 42.12301 | 12.19179 | 4134 ft | 219 kts | 181° |
| 2026-05-06 15:49 | 42.10782 | 12.19156 | 3967 ft | 216 kts | 181° |
| 2026-05-06 15:49 | 42.09277 | 12.19133 | 3780 ft | 216 kts | 182° |
| 2026-05-06 15:49 | 42.07769 | 12.19112 | 3539 ft | 219 kts | 180° |
| 2026-05-06 15:50 | 42.06242 | 12.19092 | 3417 ft | 219 kts | 181° |
| 2026-05-06 15:50 | 42.04726 | 12.19070 | 3211 ft | 216 kts | 181° |
| 2026-05-06 15:50 | 42.03238 | 12.19050 | 2993 ft | 214 kts | 180° |
| 2026-05-06 15:50 | 42.01758 | 12.19121 | 2715 ft | 213 kts | 173° |
| 2026-05-06 15:51 | 42.00325 | 12.19530 | 2552 ft | 206 kts | 165° |
| 2026-05-06 15:51 | 41.98995 | 12.20087 | 2501 ft | 192 kts | 165° |
| 2026-05-06 15:51 | 41.97793 | 12.20601 | 2502 ft | 171 kts | 165° |
| 2026-05-06 15:51 | 41.96720 | 12.21052 | 2425 ft | 157 kts | 165° |
| 2026-05-06 15:52 | 41.95701 | 12.21481 | 2265 ft | 149 kts | 165° |
| 2026-05-06 15:52 | 41.94730 | 12.21889 | 2079 ft | 144 kts | 165° |
| 2026-05-06 15:52 | 41.93791 | 12.22286 | 1933 ft | 138 kts | 162° |
| 2026-05-06 15:52 | 41.92891 | 12.22666 | 1748 ft | 132 kts | 165° |
| 2026-05-06 15:53 | 41.92028 | 12.23029 | 1571 ft | 129 kts | 165° |
| 2026-05-06 15:53 | 41.91175 | 12.23387 | 1402 ft | 128 kts | 165° |
| 2026-05-06 15:53 | 41.90333 | 12.23742 | 1221 ft | 129 kts | 165° |
| 2026-05-06 15:53 | 41.89470 | 12.24125 | 1071 ft | 133 kts | 163° |
| 2026-05-06 15:54 | 41.88569 | 12.24500 | 898 ft | 136 kts | 164° |
| 2026-05-06 15:54 | 41.87680 | 12.24869 | 694 ft | 131 kts | 162° |
| 2026-05-06 15:54 | 41.86822 | 12.25218 | 534 ft | 126 kts | 162° |
| 2026-05-06 15:54 | 41.85972 | 12.25571 | 364 ft | 132 kts | 161° |
| 2026-05-06 15:55 | 41.85084 | 12.25948 | 183 ft | 133 kts | 161° |
| 2026-05-06 15:55 | 41.84205 | 12.26314 | 30 ft | 126 kts | 161° |
| 2026-05-06 15:55 | 41.83543 | 12.26596 | 17 ft | 64 kts | 162° |
| 2026-05-06 15:55 | 41.83283 | 12.26664 | 14 ft | 32 kts | 181° |
| 2026-05-06 15:56 | 41.83142 | 12.26636 | 12 ft | 17 kts | 194° |
| 2026-05-06 15:56 | 41.83024 | 12.26601 | 13 ft | 18 kts | 192° |
| 2026-05-06 15:56 | 41.82915 | 12.26569 | 13 ft | 16 kts | 192° |
| 2026-05-06 15:56 | 41.82800 | 12.26580 | 13 ft | 18 kts | 159° |
| 2026-05-06 15:57 | 41.82674 | 12.26636 | 13 ft | 21 kts | 162° |
| 2026-05-06 15:57 | 41.82507 | 12.26705 | 13 ft | 28 kts | 163° |
| 2026-05-06 15:57 | 41.82318 | 12.26781 | 13 ft | 22 kts | 162° |
| 2026-05-06 15:57 | 41.82161 | 12.26847 | 13 ft | 25 kts | 162° |
| 2026-05-06 15:58 | 41.82014 | 12.26909 | 13 ft | 21 kts | 162° |
| 2026-05-06 15:58 | 41.81869 | 12.26970 | 14 ft | 23 kts | 162° |
| 2026-05-06 15:58 | 41.81720 | 12.27033 | 14 ft | 23 kts | 162° |
| 2026-05-06 15:58 | 41.81563 | 12.27100 | 14 ft | 25 kts | 162° |
| 2026-05-06 15:59 | 41.81401 | 12.27168 | 14 ft | 25 kts | 162° |
| 2026-05-06 15:59 | 41.81254 | 12.27229 | 14 ft | 20 kts | 163° |
| 2026-05-06 15:59 | 41.81137 | 12.27277 | 15 ft | 16 kts | 162° |
| 2026-05-06 15:59 | 41.81038 | 12.27318 | 15 ft | 15 kts | 163° |
| 2026-05-06 16:00 | 41.80937 | 12.27351 | 16 ft | 16 kts | 178° |
| 2026-05-06 16:00 | 41.80823 | 12.27333 | 15 ft | 17 kts | 189° |
| 2026-05-06 16:00 | 41.80716 | 12.27303 | 15 ft | 15 kts | 201° |
| 2026-05-06 16:00 | 41.80651 | 12.27211 | 15 ft | 13 kts | 246° |
| 2026-05-06 16:01 | 41.80620 | 12.27099 | 15 ft | 13 kts | 250° |
| 2026-05-06 16:01 | 41.80585 | 12.26970 | 16 ft | 16 kts | 250° |
| 2026-05-06 16:01 | 41.80542 | 12.26814 | 17 ft | 18 kts | 250° |
| 2026-05-06 16:01 | 41.80501 | 12.26661 | 20 ft | 16 kts | 250° |
| 2026-05-06 16:02 | 41.80465 | 12.26529 | 19 ft | 13 kts | 249° |
| 2026-05-06 16:02 | 41.80436 | 12.26423 | 18 ft | 11 kts | 248° |
| 2026-05-06 16:02 | 41.80389 | 12.26365 | 17 ft | 9 kts | 196° |
| 2026-05-06 16:02 | 41.80339 | 12.26373 | 18 ft | 6 kts | 156° |
| 2026-05-06 16:03 | 41.80285 | 12.26403 | 16 ft | 11 kts | 161° |
| 2026-05-06 16:03 | 41.80202 | 12.26406 | 16 ft | 8 kts | 177° |
| 2026-05-06 16:03 | 41.80189 | 12.26412 | 16 ft | 4 kts | 160° |
| 2026-05-06 16:03 | 41.80147 | 12.26433 | 17 ft | 9 kts | 159° |
| 2026-05-06 16:04 | 41.80096 | 12.26465 | 18 ft | 2 kts | 132° |
| 2026-05-06 16:04 | 41.80092 | 12.26474 | 16 ft | 3 kts | 115° |
| 2026-05-06 16:04 | 41.80092 | 12.26481 | 16 ft | 2 kts | 92° |
| 2026-05-06 16:04 | 41.80092 | 12.26502 | 16 ft | 1 kts | 91° |
| 2026-05-06 16:05 | 41.80092 | 12.26509 | 16 ft | 2 kts | 82° |
| 2026-05-06 16:05 | 41.80101 | 12.26554 | 19 ft | 8 kts | 83° |
| 2026-05-06 16:05 | 41.80085 | 12.26601 | 16 ft | 6 kts | 149° |
| 2026-05-06 16:05 | 41.80028 | 12.26631 | 16 ft | 11 kts | 160° |
| 2026-05-06 16:06 | 41.79962 | 12.26663 | 16 ft | 9 kts | 160° |
| 2026-05-06 16:06 | 41.79907 | 12.26689 | 16 ft | 6 kts | 160° |
| 2026-05-06 16:06 | 41.79887 | 12.26696 | 16 ft | 1 kts | 185° |
| 2026-05-06 16:06 | 41.79877 | 12.26688 | 16 ft | 3 kts | 220° |
| 2026-05-06 16:07 | 41.79864 | 12.26659 | 17 ft | 3 kts | 242° |
| 2026-05-06 16:07 | 41.79860 | 12.26645 | 16 ft | 1 kts | 249° |
| 2026-05-06 16:07 | 41.79859 | 12.26641 | 16 ft | 1 kts | 249° |
| 2026-05-06 16:07 | 41.79858 | 12.26639 | 16 ft | 0 kts | 249° |